Time;durP1;ratioP1;P1;durP2;ratioP2;P2;SDS_P1;SDS_P2;PMS_P1;PMS_P2;Temp;Humidity;BMP_temperature;BMP_pressure;BME280_temperature;BME280_humidity;BME280_pressure;Samples;Min_cycle;Max_cycle;Signal;HPM_P1;HPM_P2
2022/03/01 00:00:05;;;;;;;11.88;7.25;;;;;;;-4.12;61.25;101156.00;4919649;28;20039;-67
2022/03/01 00:02:37;;;;;;;8.35;5.05;;;;;;;-4.10;61.10;101159.50;4919732;28;20178;-68
2022/03/01 00:05:01;;;;;;;12.40;5.45;;;;;;;-4.10;60.88;101153.41;4919924;28;20133;-67
2022/03/01 00:07:27;;;;;;;11.40;5.00;;;;;;;-4.12;61.45;101149.91;4919628;28;20517;-67
2022/03/01 00:09:52;;;;;;;8.68;5.07;;;;;;;-4.12;61.51;101148.19;4903473;29;20079;-71
2022/03/01 00:12:16;;;;;;;9.85;5.45;;;;;;;-4.12;61.31;101144.72;4920868;28;20050;-71
2022/03/01 00:14:41;;;;;;;9.55;5.07;;;;;;;-4.14;61.11;101144.69;4920120;28;20528;-69
2022/03/01 00:17:06;;;;;;;11.13;5.57;;;;;;;-4.15;61.45;101142.94;4919740;28;20047;-70
2022/03/01 00:19:31;;;;;;;9.80;5.53;;;;;;;-4.15;61.63;101148.13;4919625;28;20043;-71
2022/03/01 00:21:57;;;;;;;11.38;5.32;;;;;;;-4.13;61.60;101153.38;4919911;28;20039;-70
2022/03/01 00:24:22;;;;;;;12.43;5.00;;;;;;;-4.16;61.44;101141.19;4918331;29;20051;-71
2022/03/01 00:26:47;;;;;;;13.82;6.72;;;;;;;-4.18;60.97;101142.03;4919589;29;20089;-71
2022/03/01 00:29:11;;;;;;;10.48;5.50;;;;;;;-4.22;61.38;101142.84;4919286;28;20055;-71
2022/03/01 00:31:36;;;;;;;11.98;6.15;;;;;;;-4.30;61.18;101140.16;4919187;28;20050;-72
2022/03/01 00:34:01;;;;;;;8.73;5.78;;;;;;;-4.33;61.79;101142.72;4919215;28;20051;-71
2022/03/01 00:36:26;;;;;;;12.25;6.32;;;;;;;-4.32;61.79;101144.47;4919069;28;20035;-71
2022/03/01 00:38:50;;;;;;;12.80;5.03;;;;;;;-4.32;61.65;101134.06;4917751;29;20051;-71
2022/03/01 00:41:15;;;;;;;12.98;6.10;;;;;;;-4.34;61.44;101133.16;4918831;28;20043;-71
2022/03/01 00:43:40;;;;;;;12.13;6.22;;;;;;;-4.35;61.41;101127.94;4918192;28;20047;-71
2022/03/01 00:46:04;;;;;;;12.63;6.13;;;;;;;-4.38;61.24;101137.44;4919004;28;20054;-71
2022/03/01 00:48:29;;;;;;;13.13;5.32;;;;;;;-4.40;61.92;101135.66;4918991;28;20873;-72
2022/03/01 00:50:54;;;;;;;11.90;7.03;;;;;;;-4.44;61.86;101137.38;4918387;29;20529;-73
2022/03/01 00:53:19;;;;;;;8.65;4.97;;;;;;;-4.46;61.58;101135.59;4918956;29;20046;-75
2022/03/01 00:55:44;;;;;;;12.75;6.00;;;;;;;-4.49;62.08;101138.16;4919979;28;20494;-69
2022/03/01 00:58:08;;;;;;;11.63;5.15;;;;;;;-4.51;61.85;101140.72;4918712;29;20413;-69
2022/03/01 01:00:34;;;;;;;9.77;5.55;;;;;;;-4.55;61.82;101136.34;4919956;28;20118;-70
2022/03/01 01:02:59;;;;;;;13.43;5.75;;;;;;;-4.55;61.98;101140.69;4926390;28;20066;-70
2022/03/01 01:05:24;;;;;;;11.95;5.35;;;;;;;-4.58;61.98;101140.63;4928502;28;20486;-72
2022/03/01 01:07:49;;;;;;;10.60;5.03;;;;;;;-4.58;61.85;101128.50;4920340;28;20066;-68
2022/03/01 01:10:14;;;;;;;14.05;6.40;;;;;;;-4.60;61.79;101135.41;4918496;28;20047;-74
2022/03/01 01:12:40;;;;;;;18.98;6.13;;;;;;;-4.62;61.96;101131.91;4917686;29;20050;-70
2022/03/01 01:15:07;;;;;;;7.72;5.43;;;;;;;-4.62;62.17;101125.81;4917606;29;20055;-72
2022/03/01 01:17:32;;;;;;;12.55;5.40;;;;;;;-4.65;62.28;101124.09;4917826;29;20102;-72
2022/03/01 01:19:57;;;;;;;9.55;5.15;;;;;;;-4.65;62.77;101128.41;4918547;29;20512;-69
2022/03/01 01:22:40;;;;;;;11.30;5.75;;;;;;;-4.66;62.37;101130.13;4917398;29;20402;-73
2022/03/01 01:25:06;;;;;;;12.27;5.70;;;;;;;-4.67;62.15;101132.72;4918952;28;20047;-71
2022/03/01 01:27:31;;;;;;;10.48;5.07;;;;;;;-4.67;62.34;101128.38;4917931;28;20043;-68
2022/03/01 01:29:55;;;;;;;12.55;5.60;;;;;;;-4.68;62.24;101130.97;4917609;28;20094;-72
2022/03/01 01:32:20;;;;;;;8.77;4.63;;;;;;;-4.67;62.01;101130.97;4918343;29;20114;-69
2022/03/01 01:34:45;;;;;;;10.43;5.88;;;;;;;-4.67;62.21;101133.59;4918175;29;20053;-70
2022/03/01 01:37:10;;;;;;;10.13;5.20;;;;;;;-4.66;62.41;101130.13;4918060;29;20494;-73
2022/03/01 01:39:34;;;;;;;9.00;5.05;;;;;;;-4.69;62.27;101130.09;4916985;29;20074;-70
2022/03/01 01:41:59;;;;;;;13.13;5.15;;;;;;;-4.69;62.40;101121.41;4917682;29;20402;-74
2022/03/01 01:44:24;;;;;;;9.18;5.28;;;;;;;-4.69;61.86;101124.00;4917896;29;20059;-71
2022/03/01 01:46:49;;;;;;;10.52;6.00;;;;;;;-4.71;62.20;101125.72;4917690;29;20130;-75
2022/03/01 01:49:13;;;;;;;8.73;5.22;;;;;;;-4.72;62.30;101121.34;4918472;29;20114;-75
2022/03/01 01:51:38;;;;;;;10.35;5.38;;;;;;;-4.72;61.69;101126.56;4917984;29;20082;-75
2022/03/01 01:54:04;;;;;;;11.95;5.93;;;;;;;-4.74;62.03;101121.38;4918707;29;20047;-74
2022/03/01 01:56:29;;;;;;;8.45;5.03;;;;;;;-4.76;61.93;101134.34;4919063;29;20525;-73
2022/03/01 01:58:54;;;;;;;11.50;6.15;;;;;;;-4.74;61.75;101125.69;4918302;29;20541;-73
2022/03/01 02:01:19;;;;;;;12.35;6.10;;;;;;;-4.77;62.00;101130.00;4918224;29;20051;-67
2022/03/01 02:03:44;;;;;;;11.10;5.88;;;;;;;-4.80;62.44;101119.53;4918078;29;20497;-66
2022/03/01 02:06:08;;;;;;;12.48;4.90;;;;;;;-4.82;62.12;101126.44;4919436;29;20490;-67
2022/03/01 02:08:34;;;;;;;11.52;5.57;;;;;;;-4.86;62.32;101122.06;4920547;29;20850;-65
2022/03/01 02:10:59;;;;;;;6.65;4.20;;;;;;;-4.89;62.28;101129.81;4918730;29;20055;-63
2022/03/01 02:13:24;;;;;;;10.63;5.80;;;;;;;-4.90;62.30;101120.25;4919806;29;20390;-67
2022/03/01 02:15:49;;;;;;;10.15;4.93;;;;;;;-4.91;62.53;101128.91;4919586;28;20414;-67
2022/03/01 02:18:15;;;;;;;8.05;4.65;;;;;;;-4.93;63.10;101125.41;4917411;29;20098;-68
2022/03/01 02:20:40;;;;;;;10.55;5.55;;;;;;;-4.95;62.77;101127.09;4901577;29;20493;-67
2022/03/01 02:23:04;;;;;;;8.20;4.55;;;;;;;-4.96;62.38;101125.34;4918237;28;20386;-65
2022/03/01 02:25:29;;;;;;;10.45;5.40;;;;;;;-4.96;62.62;101125.34;4916533;29;20517;-66
2022/03/01 02:27:54;;;;;;;15.57;4.95;;;;;;;-4.97;62.39;101122.75;4917741;28;20269;-68
2022/03/01 02:30:19;;;;;;;9.43;5.63;;;;;;;-4.96;62.71;101127.06;4917598;28;20074;-70
2022/03/01 02:32:45;;;;;;;12.43;5.30;;;;;;;-4.97;62.54;101127.97;4917066;28;20051;-67
2022/03/01 02:35:11;;;;;;;8.68;5.07;;;;;;;-4.99;62.92;101125.31;4916039;29;20035;-66
2022/03/01 02:37:36;;;;;;;9.40;5.50;;;;;;;-5.00;62.50;101128.78;4921599;28;20138;-65
2022/03/01 02:40:05;;;;;;;6.85;4.07;;;;;;;-5.01;62.73;101124.44;4923739;28;20113;-67
2022/03/01 02:42:30;;;;;;;21.15;5.97;;;;;;;-5.03;62.65;101138.25;4909644;28;20050;-67
2022/03/01 02:44:55;;;;;;;8.63;4.80;;;;;;;-5.06;62.79;101133.00;4923110;28;20047;-67
2022/03/01 02:47:20;;;;;;;9.18;5.28;;;;;;;-5.07;62.97;101128.63;4925274;28;20094;-65
2022/03/01 02:49:45;;;;;;;9.77;5.28;;;;;;;-5.10;63.13;101132.09;4925201;28;20509;-66
2022/03/01 02:52:10;;;;;;;11.13;5.57;;;;;;;-5.10;62.69;101137.28;4908255;28;20078;-66
2022/03/01 02:54:34;;;;;;;6.80;4.28;;;;;;;-5.17;62.66;101135.44;4910499;28;20514;-67
2022/03/01 02:57:01;;;;;;;8.73;5.03;;;;;;;-5.16;62.85;101131.97;4924168;28;20039;-65
2022/03/01 02:59:26;;;;;;;10.60;5.30;;;;;;;-5.17;63.08;101127.63;4925455;28;20054;-65
2022/03/01 03:01:50;;;;;;;8.38;4.65;;;;;;;-5.19;63.21;101129.34;4933609;28;20042;-64
2022/03/01 03:04:15;;;;;;;10.65;4.80;;;;;;;-5.22;63.17;101129.28;4935692;28;20078;-64
2022/03/01 03:06:40;;;;;;;13.02;6.20;;;;;;;-5.23;63.34;101132.75;4935152;28;20134;-64
2022/03/01 03:09:04;;;;;;;6.25;4.50;;;;;;;-5.24;63.07;101120.59;4938168;28;20597;-64
2022/03/01 03:11:29;;;;;;;9.80;4.47;;;;;;;-5.27;62.92;101121.41;4922358;28;20484;-64
2022/03/01 03:13:54;;;;;;;7.70;4.95;;;;;;;-5.29;63.15;101119.63;4939639;28;20520;-63
2022/03/01 03:16:19;;;;;;;8.23;4.57;;;;;;;-5.33;63.46;101123.94;4938276;28;20039;-65
2022/03/01 03:18:44;;;;;;;8.93;4.93;;;;;;;-5.32;63.17;101119.59;4938319;28;20098;-64
2022/03/01 03:21:10;;;;;;;10.13;5.13;;;;;;;-5.32;63.17;101122.22;4939377;28;20106;-65
2022/03/01 03:23:35;;;;;;;10.68;5.07;;;;;;;-5.37;63.11;101119.50;4939310;28;20134;-66
2022/03/01 03:26:00;;;;;;;8.45;5.10;;;;;;;-5.37;63.20;101118.63;4939523;28;20535;-65
2022/03/01 03:28:25;;;;;;;12.02;4.63;;;;;;;-5.38;63.21;101117.75;4939974;28;20549;-64
2022/03/01 03:30:50;;;;;;;9.85;5.22;;;;;;;-5.38;63.47;101122.97;4939041;28;20054;-66
2022/03/01 03:33:15;;;;;;;16.83;6.35;;;;;;;-5.37;62.88;101116.91;4939105;28;20110;-64
2022/03/01 03:35:39;;;;;;;9.35;4.18;;;;;;;-5.40;63.53;101106.47;4939293;28;20054;-66
2022/03/01 03:38:04;;;;;;;9.88;5.32;;;;;;;-5.39;63.46;101108.22;4938199;28;20097;-64
2022/03/01 03:40:29;;;;;;;12.52;5.78;;;;;;;-5.37;63.36;101108.25;4906298;28;20046;-65
2022/03/01 03:42:55;;;;;;;8.65;4.70;;;;;;;-5.38;63.52;101109.97;4938585;28;20047;-68
2022/03/01 03:45:20;;;;;;;8.02;4.80;;;;;;;-5.39;63.44;101115.13;4940091;28;20085;-65
2022/03/01 03:47:44;;;;;;;6.57;4.38;;;;;;;-5.40;63.25;101105.59;4940724;28;20085;-64
2022/03/01 03:50:10;;;;;;;12.45;5.90;;;;;;;-5.42;63.33;101102.13;4940243;28;20043;-65
2022/03/01 03:52:35;;;;;;;10.50;5.38;;;;;;;-5.44;63.17;101103.81;4939511;28;20049;-65
2022/03/01 03:54:59;;;;;;;9.80;4.63;;;;;;;-5.45;63.27;101109.84;4939065;28;20043;-65
2022/03/01 03:57:24;;;;;;;9.30;5.07;;;;;;;-5.47;63.23;101101.16;4939085;28;20105;-65
2022/03/01 03:59:49;;;;;;;6.95;4.40;;;;;;;-5.49;63.65;101098.53;4937723;28;20081;-64
2022/03/01 04:02:13;;;;;;;12.27;5.55;;;;;;;-5.53;63.65;101097.59;4940724;28;20042;-63
2022/03/01 04:04:38;;;;;;;10.20;5.32;;;;;;;-5.52;63.42;101104.53;4909105;28;20051;-66
2022/03/01 04:07:04;;;;;;;8.13;5.00;;;;;;;-5.50;63.55;101109.75;4944297;28;20039;-65
2022/03/01 04:09:29;;;;;;;6.95;4.30;;;;;;;-5.52;63.32;101109.72;4944090;28;20061;-66
2022/03/01 04:11:54;;;;;;;8.15;4.53;;;;;;;-5.51;63.66;101105.41;4937460;28;20042;-65
2022/03/01 04:14:19;;;;;;;10.27;5.03;;;;;;;-5.52;63.27;101112.34;4921419;28;20560;-65
2022/03/01 04:16:45;;;;;;;9.27;4.68;;;;;;;-5.50;63.85;101105.44;4937552;28;20134;-65
2022/03/01 04:19:10;;;;;;;11.45;5.05;;;;;;;-5.51;63.05;101106.28;4937853;28;20038;-64
2022/03/01 04:21:35;;;;;;;8.77;4.55;;;;;;;-5.49;63.35;101096.81;4938461;28;20073;-66
2022/03/01 04:24:01;;;;;;;12.00;5.22;;;;;;;-5.48;63.68;101097.69;4938406;28;20050;-65
2022/03/01 04:26:25;;;;;;;7.75;4.15;;;;;;;-5.46;63.55;101100.31;4920757;28;20497;-64
2022/03/01 04:28:50;;;;;;;8.48;4.97;;;;;;;-5.47;63.47;101101.16;4936873;28;20516;-66
2022/03/01 04:31:15;;;;;;;16.58;5.35;;;;;;;-5.42;63.05;101112.50;4938049;28;20061;-66
2022/03/01 04:33:40;;;;;;;11.25;5.32;;;;;;;-5.39;63.20;101104.75;4920796;28;20088;-66
2022/03/01 04:36:06;;;;;;;12.57;4.53;;;;;;;-5.33;63.01;101112.66;4936789;28;20568;-66
2022/03/01 04:38:30;;;;;;;7.10;4.90;;;;;;;-5.31;63.89;101109.25;4936707;28;20485;-65
2022/03/01 04:40:56;;;;;;;10.48;4.97;;;;;;;-5.28;63.74;101103.19;4938089;28;20493;-66
2022/03/01 04:43:21;;;;;;;11.93;5.32;;;;;;;-5.23;63.91;101109.34;4920914;28;20054;-66
2022/03/01 04:45:46;;;;;;;8.07;4.53;;;;;;;-5.05;63.85;101103.53;4936918;28;20045;-66
2022/03/01 04:48:11;;;;;;;8.75;5.32;;;;;;;-4.77;64.00;101114.38;4936655;28;20105;-66
2022/03/01 04:50:36;;;;;;;10.05;5.90;;;;;;;-4.43;62.69;101114.81;4936345;28;20038;-64
2022/03/01 04:53:01;;;;;;;13.30;5.50;;;;;;;-4.06;62.77;101114.38;4937891;28;20057;-71
2022/03/01 04:55:25;;;;;;;10.82;5.60;;;;;;;-3.69;61.98;101106.94;4937883;28;20042;-71
2022/03/01 04:57:50;;;;;;;9.27;4.93;;;;;;;-3.33;60.28;101112.50;4918443;28;20421;-71
2022/03/01 05:00:15;;;;;;;8.27;4.82;;;;;;;-3.01;59.22;101107.53;4904556;29;20043;-71
2022/03/01 05:02:42;;;;;;;10.65;5.72;;;;;;;-2.71;58.35;101112.06;4901249;29;20098;-73
2022/03/01 05:05:10;;;;;;;10.10;6.53;;;;;;;-2.43;57.55;101113.06;4897152;29;20031;-71
2022/03/01 05:07:35;;;;;;;15.95;5.32;;;;;;;-2.17;57.13;101109.72;4897855;29;20407;-71
2022/03/01 05:09:59;;;;;;;6.70;4.97;;;;;;;-1.91;56.33;101111.50;4896861;29;20603;-71
2022/03/01 05:12:24;;;;;;;18.45;5.47;;;;;;;-1.65;55.78;101108.09;4911800;29;20039;-71
2022/03/01 05:14:49;;;;;;;52.10;10.38;;;;;;;-1.42;55.38;101108.13;4918331;28;20050;-72
2022/03/01 05:17:13;;;;;;;14.65;5.90;;;;;;;-1.15;54.27;101101.16;4918517;29;20439;-72
2022/03/01 05:19:38;;;;;;;24.35;6.22;;;;;;;-0.82;53.01;101104.59;4912632;29;20040;-73
2022/03/01 05:22:03;;;;;;;18.17;6.63;;;;;;;-0.47;52.78;101105.38;4907055;29;20053;-73
2022/03/01 05:24:28;;;;;;;13.73;6.13;;;;;;;-0.07;52.15;101099.97;4917295;28;20125;-73
2022/03/01 05:26:52;;;;;;;19.27;6.72;;;;;;;0.28;51.37;101097.13;4917655;29;20142;-72
2022/03/01 05:29:17;;;;;;;15.27;6.65;;;;;;;0.60;50.36;101092.53;4925308;28;20047;-72
2022/03/01 05:31:42;;;;;;;13.45;5.70;;;;;;;0.94;49.84;101098.38;4925815;28;20046;-73
2022/03/01 05:34:06;;;;;;;15.00;6.70;;;;;;;1.35;48.92;101094.47;4918269;28;20074;-73
2022/03/01 05:36:31;;;;;;;15.65;6.93;;;;;;;1.86;47.73;101100.00;4918104;28;20581;-75
2022/03/01 05:38:56;;;;;;;18.80;6.43;;;;;;;2.44;45.97;101095.66;4918611;28;20099;-73
2022/03/01 05:41:21;;;;;;;15.65;7.25;;;;;;;2.97;45.05;101099.19;4917917;28;20098;-73
2022/03/01 05:43:46;;;;;;;17.08;7.70;;;;;;;3.34;44.02;101095.91;4916448;29;20062;-73
2022/03/01 05:46:10;;;;;;;14.85;6.63;;;;;;;3.70;43.02;101095.19;4917817;28;20058;-73
2022/03/01 05:48:35;;;;;;;12.95;7.00;;;;;;;4.00;43.15;101089.25;4916978;29;20094;-74
2022/03/01 05:51:01;;;;;;;18.70;6.88;;;;;;;4.42;41.96;101096.25;4918097;29;20477;-73
2022/03/01 05:53:25;;;;;;;9.98;5.53;;;;;;;4.77;41.33;101091.00;4915883;29;20047;-75
2022/03/01 05:55:50;;;;;;;28.08;6.80;;;;;;;5.07;40.53;101092.88;4917698;28;20053;-74
2022/03/01 05:58:15;;;;;;;12.93;7.40;;;;;;;5.42;39.55;101085.75;4916773;29;20138;-73
2022/03/01 06:00:40;;;;;;;16.90;8.75;;;;;;;5.71;38.60;101083.19;4913735;29;20553;-72
2022/03/01 06:03:05;;;;;;;25.60;10.73;;;;;;;6.08;37.63;101090.09;4917245;29;20047;-73
2022/03/01 06:05:30;;;;;;;29.92;10.23;;;;;;;6.54;37.16;101092.19;4916903;29;20043;-73
2022/03/01 06:07:56;;;;;;;34.47;11.70;;;;;;;6.91;37.11;101095.34;4916133;29;20074;-73
2022/03/01 06:10:20;;;;;;;30.95;12.98;;;;;;;7.21;35.63;101082.88;4917625;28;20126;-73
2022/03/01 06:12:45;;;;;;;37.78;15.35;;;;;;;7.40;35.42;101093.69;4917149;29;20146;-71
2022/03/01 06:15:10;;;;;;;41.03;14.30;;;;;;;7.59;35.27;101092.09;4916906;29;20043;-76
2022/03/01 06:17:35;;;;;;;45.08;14.30;;;;;;;7.71;35.13;101093.44;4918330;28;20047;-75
2022/03/01 06:20:01;;;;;;;49.85;16.23;;;;;;;7.92;34.29;101097.09;4917895;28;20126;-75
2022/03/01 06:22:28;;;;;;;37.53;15.75;;;;;;;8.22;33.59;101087.09;4900863;29;20071;-74
2022/03/01 06:24:55;;;;;;;39.40;14.55;;;;;;;8.48;31.67;101086.97;4917011;29;20043;-74
2022/03/01 06:27:20;;;;;;;35.28;12.93;;;;;;;8.77;32.34;101087.59;4918197;29;20130;-73
2022/03/01 06:29:45;;;;;;;23.58;10.13;;;;;;;9.16;31.16;101077.06;4884403;29;20067;-74
2022/03/01 06:32:10;;;;;;;28.23;10.93;;;;;;;9.82;30.98;101078.53;4898903;29;20051;-73
2022/03/01 06:34:34;;;;;;;21.65;8.63;;;;;;;10.64;30.05;101077.34;4917219;29;20047;-73
2022/03/01 06:36:59;;;;;;;23.17;9.43;;;;;;;11.49;28.71;101078.34;4914506;28;20052;-73
2022/03/01 06:39:24;;;;;;;23.92;9.30;;;;;;;12.27;27.43;101074.16;4918701;29;20039;-73
2022/03/01 06:41:50;;;;;;;23.25;9.68;;;;;;;12.93;26.65;101077.47;4923188;28;20079;-73
2022/03/01 06:44:15;;;;;;;24.38;9.77;;;;;;;13.56;25.59;101081.75;4925875;29;20042;-75
2022/03/01 06:46:40;;;;;;;26.70;10.90;;;;;;;14.08;25.43;101080.28;4937738;29;20046;-74
2022/03/01 06:49:04;;;;;;;24.75;10.00;;;;;;;14.01;25.00;101078.06;4936609;29;20204;-73
2022/03/01 06:51:30;;;;;;;25.20;10.43;;;;;;;12.91;25.86;101087.38;4918396;29;20148;-73
2022/03/01 06:53:55;;;;;;;31.92;10.77;;;;;;;11.49;27.59;101091.69;4933918;29;20054;-75
2022/03/01 06:56:19;;;;;;;24.70;9.57;;;;;;;10.12;28.96;101089.59;4936350;29;20043;-76
2022/03/01 06:58:44;;;;;;;26.95;10.15;;;;;;;8.94;30.11;101090.41;4934843;29;20062;-75
2022/03/01 07:01:09;;;;;;;23.88;10.30;;;;;;;7.99;30.71;101088.84;4928456;29;20047;-75
2022/03/01 07:03:34;;;;;;;19.17;9.55;;;;;;;7.38;31.95;101102.63;4920182;29;20410;-74
2022/03/01 07:05:58;;;;;;;30.45;9.77;;;;;;;6.96;32.94;101091.69;4919897;29;20047;-72
2022/03/01 07:08:24;;;;;;;23.98;9.85;;;;;;;6.68;33.11;101091.72;4922225;29;20059;-73
2022/03/01 07:10:52;;;;;;;25.70;10.60;;;;;;;6.57;33.34;101105.31;4921907;29;20463;-74
2022/03/01 07:13:17;;;;;;;21.70;11.00;;;;;;;6.43;33.92;101096.97;4923347;29;20043;-73
2022/03/01 07:15:42;;;;;;;30.70;11.20;;;;;;;6.27;33.45;101093.91;4925343;28;20127;-73
2022/03/01 07:18:07;;;;;;;23.30;10.43;;;;;;;6.12;34.10;101100.53;4921883;29;20080;-72
2022/03/01 07:20:34;;;;;;;23.83;10.68;;;;;;;6.07;34.10;101097.16;4922377;28;20102;-73
2022/03/01 07:22:59;;;;;;;22.40;10.00;;;;;;;5.85;33.90;101101.31;4922890;29;20054;-73
2022/03/01 07:25:24;;;;;;;24.80;9.18;;;;;;;5.65;34.00;101106.28;4922929;29;20051;-72
2022/03/01 07:27:50;;;;;;;22.27;8.90;;;;;;;5.55;34.76;101104.81;4920779;29;20039;-74
2022/03/01 07:30:18;;;;;;;32.38;11.45;;;;;;;5.47;35.13;101103.25;4921293;29;20065;-74
2022/03/01 07:32:42;;;;;;;26.23;10.10;;;;;;;5.43;35.05;101112.19;4919566;29;20094;-73
2022/03/01 07:35:07;;;;;;;25.13;10.25;;;;;;;5.44;35.04;101105.97;4920246;29;20048;-72
2022/03/01 07:37:34;;;;;;;28.27;9.57;;;;;;;6.64;34.67;101101.59;4919511;29;20051;-71
2022/03/01 07:39:59;;;;;;;30.65;9.75;;;;;;;9.13;31.90;101106.47;4920954;29;20047;-72
2022/03/01 07:42:24;;;;;;;29.33;9.50;;;;;;;11.83;28.33;101097.97;4920052;29;20070;-72
2022/03/01 07:44:49;;;;;;;40.90;11.82;;;;;;;14.24;25.08;101092.69;4925080;29;20062;-72
2022/03/01 07:47:14;;;;;;;28.60;12.23;;;;;;;15.98;22.44;101088.09;4920128;29;20058;-73
2022/03/01 07:49:38;;;;;;;25.98;11.10;;;;;;;17.31;21.28;101092.63;4919002;29;20490;-72
2022/03/01 07:52:03;;;;;;;38.42;12.05;;;;;;;18.66;19.95;101086.38;4902905;29;20047;-73
2022/03/01 07:54:28;;;;;;;25.30;11.45;;;;;;;19.88;18.85;101082.25;4918462;28;20107;-75
2022/03/01 07:56:53;;;;;;;22.60;9.63;;;;;;;20.98;18.06;101084.94;4919836;29;20085;-73
2022/03/01 07:59:18;;;;;;;23.10;10.90;;;;;;;21.92;17.70;101074.25;4918421;29;20067;-72
2022/03/01 08:01:42;;;;;;;28.25;10.90;;;;;;;22.73;16.75;101070.75;4920181;29;20117;-73
2022/03/01 08:04:07;;;;;;;21.58;9.55;;;;;;;23.44;16.20;101072.66;4920669;28;20051;-72
2022/03/01 08:06:32;;;;;;;27.40;9.25;;;;;;;23.88;15.46;101079.81;4919671;29;20510;-73
2022/03/01 08:08:56;;;;;;;19.02;9.77;;;;;;;24.36;15.32;101083.84;4919957;29;20581;-73
2022/03/01 08:11:21;;;;;;;22.95;8.73;;;;;;;24.81;14.58;101071.72;4919743;29;20055;-73
2022/03/01 08:13:46;;;;;;;21.27;9.38;;;;;;;25.32;14.30;101074.22;4903319;29;20050;-74
2022/03/01 08:16:11;;;;;;;20.95;9.13;;;;;;;25.93;13.57;101070.09;4919548;29;20494;-72
2022/03/01 08:18:36;;;;;;;21.15;9.27;;;;;;;26.23;13.35;101073.91;4919049;29;20047;-71
2022/03/01 08:21:00;;;;;;;17.10;9.52;;;;;;;26.55;13.35;101074.84;4922098;29;20050;-74
2022/03/01 08:23:26;;;;;;;16.70;8.63;;;;;;;27.03;13.51;101085.53;4920896;28;20043;-75
2022/03/01 08:25:51;;;;;;;19.02;8.23;;;;;;;27.38;13.06;101075.88;4921800;29;20042;-74
2022/03/01 08:28:16;;;;;;;20.90;7.47;;;;;;;27.79;12.50;101070.88;4922132;29;20133;-74
2022/03/01 08:30:41;;;;;;;13.95;7.13;;;;;;;28.20;12.15;101075.09;4918405;29;20384;-72
2022/03/01 08:33:06;;;;;;;19.42;8.30;;;;;;;28.54;11.81;101075.38;4919440;29;20501;-73
2022/03/01 08:35:34;;;;;;;22.35;8.02;;;;;;;28.72;11.66;101077.69;4919817;29;20125;-73
2022/03/01 08:38:04;;;;;;;17.88;7.57;;;;;;;29.15;10.70;101079.47;4919628;29;20513;-73
2022/03/01 08:40:32;;;;;;;10.70;6.55;;;;;;;29.36;10.80;101075.00;4918442;29;20035;-72
2022/03/01 08:42:56;;;;;;;14.13;5.95;;;;;;;29.37;10.19;101071.22;4920013;29;20050;-72
2022/03/01 08:45:21;;;;;;;16.98;7.55;;;;;;;29.47;10.30;101069.00;4919664;28;20054;-73
2022/03/01 08:47:46;;;;;;;16.33;7.47;;;;;;;29.83;10.10;101072.47;4919391;29;20109;-73
2022/03/01 08:50:11;;;;;;;17.35;9.23;;;;;;;30.13;9.53;101070.41;4919318;29;20082;-72
2022/03/01 08:52:36;;;;;;;16.40;7.30;;;;;;;30.64;9.71;101075.53;4918721;29;20640;-72
2022/03/01 08:55:01;;;;;;;16.60;7.60;;;;;;;31.02;9.84;101070.38;4901713;29;20549;-74
2022/03/01 08:57:27;;;;;;;14.73;7.90;;;;;;;31.15;10.08;101075.09;4921172;28;20421;-72
2022/03/01 08:59:52;;;;;;;16.75;7.30;;;;;;;31.31;9.53;101072.75;4919502;29;20125;-66
2022/03/01 09:02:18;;;;;;;14.68;6.68;;;;;;;31.40;9.59;101071.50;4905186;29;20521;-66
2022/03/01 09:04:42;;;;;;;19.90;7.03;;;;;;;31.04;8.97;101070.97;4918681;28;20042;-67
2022/03/01 09:07:07;;;;;;;12.95;7.22;;;;;;;30.78;9.49;101073.69;4918833;29;20055;-66
2022/03/01 09:09:32;;;;;;;19.48;7.15;;;;;;;30.90;8.92;101067.38;4918555;28;20043;-66
2022/03/01 09:11:58;;;;;;;35.10;8.70;;;;;;;31.10;8.86;101074.84;4917412;29;20043;-65
2022/03/01 09:14:23;;;;;;;16.13;7.95;;;;;;;31.15;8.76;101062.16;4917478;29;20050;-66
2022/03/01 09:16:47;;;;;;;10.50;6.60;;;;;;;31.21;8.74;101066.81;4918520;29;20035;-66
2022/03/01 09:19:14;;;;;;;13.55;6.15;;;;;;;31.37;8.90;101065.56;4918495;29;20089;-65
2022/03/01 09:21:39;;;;;;;17.92;8.57;;;;;;;31.51;8.82;101060.88;4917176;29;20043;-65
2022/03/01 09:24:04;;;;;;;14.98;8.52;;;;;;;31.09;8.60;101062.97;4917200;29;20047;-65
2022/03/01 09:26:28;;;;;;;17.50;7.05;;;;;;;30.74;8.73;101048.47;4918366;29;20468;-65
2022/03/01 09:28:53;;;;;;;16.33;7.55;;;;;;;30.18;8.53;101039.50;4918410;29;20050;-66
2022/03/01 09:31:18;;;;;;;18.40;7.07;;;;;;;29.53;9.53;101049.84;4918192;29;20070;-65
2022/03/01 09:33:43;;;;;;;16.38;7.78;;;;;;;29.07;9.53;101043.91;4918253;29;20046;-65
2022/03/01 09:36:11;;;;;;;10.13;7.28;;;;;;;28.83;9.59;101039.63;4916829;29;20043;-65
2022/03/01 09:38:36;;;;;;;16.95;6.80;;;;;;;28.68;9.61;101040.69;4917810;29;20051;-65
2022/03/01 09:41:02;;;;;;;16.40;6.82;;;;;;;28.85;9.26;101039.44;4917111;29;20081;-66
2022/03/01 09:43:27;;;;;;;11.10;6.57;;;;;;;29.06;9.38;101041.34;4901296;29;20051;-66
2022/03/01 09:45:52;;;;;;;18.05;6.93;;;;;;;29.43;9.30;101034.75;4918452;29;20085;-65
2022/03/01 09:48:17;;;;;;;11.70;6.75;;;;;;;29.99;8.55;101037.50;4918117;29;20079;-65
2022/03/01 09:50:42;;;;;;;11.98;5.68;;;;;;;30.27;8.10;101036.38;4917208;29;20070;-67
2022/03/01 09:53:08;;;;;;;10.35;4.88;;;;;;;30.51;8.70;101032.25;4918559;28;20051;-67
2022/03/01 09:55:32;;;;;;;15.50;5.97;;;;;;;30.70;8.09;101029.81;4901561;29;20049;-65
2022/03/01 09:57:57;;;;;;;13.02;4.72;;;;;;;30.63;7.65;101025.13;4917215;29;20047;-67
2022/03/01 10:00:22;;;;;;;9.20;4.65;;;;;;;30.81;7.83;101020.97;4921565;29;20410;-65
2022/03/01 10:02:53;;;;;;;6.68;4.60;;;;;;;31.19;7.21;101024.00;4919237;29;20095;-66
2022/03/01 10:05:18;;;;;;;8.20;4.30;;;;;;;30.97;7.66;101021.41;4916790;29;20486;-65
2022/03/01 10:07:45;;;;;;;6.85;3.80;;;;;;;30.66;7.24;101015.63;4918160;28;20245;-66
2022/03/01 10:10:16;;;;;;;9.88;5.15;;;;;;;30.15;7.94;101015.16;4924644;29;20070;-66
2022/03/01 10:12:40;;;;;;;6.90;3.45;;;;;;;29.26;7.26;101004.75;4929420;29;20498;-66
2022/03/01 10:15:10;;;;;;;9.25;3.80;;;;;;;29.58;7.40;100997.84;4932069;29;20086;-66
2022/03/01 10:17:46;;;;;;;4.85;3.80;;;;;;;30.24;7.68;101000.19;4933665;28;20065;-68
2022/03/01 10:20:13;;;;;;;7.60;3.63;;;;;;;29.07;7.07;100994.47;4928118;29;20047;-67
2022/03/01 10:22:48;;;;;;;6.85;3.28;;;;;;;27.67;7.97;100989.31;4922283;29;20110;-65
2022/03/01 10:25:15;;;;;;;4.15;2.78;;;;;;;25.96;8.46;100987.72;4923697;29;20113;-66
2022/03/01 10:27:44;;;;;;;4.07;2.90;;;;;;;25.18;8.85;100981.22;4923935;29;20141;-65
2022/03/01 10:30:09;;;;;;;4.10;2.78;;;;;;;23.62;9.00;100975.47;4921835;29;20039;-66
2022/03/01 10:32:35;;;;;;;3.60;2.40;;;;;;;22.88;9.54;100983.25;4922983;29;20086;-66
2022/03/01 10:35:01;;;;;;;5.28;2.60;;;;;;;21.27;9.96;100975.59;4906927;29;20481;-66
2022/03/01 10:37:33;;;;;;;4.57;2.47;;;;;;;19.47;11.62;100974.94;4922308;29;20453;-65
2022/03/01 10:40:20;;;;;;;5.32;2.60;;;;;;;17.88;13.15;100978.47;4921972;29;20508;-66
2022/03/01 10:43:13;;;;;;;4.40;2.88;;;;;;;16.22;13.96;100976.03;4906265;29;20050;-65
2022/03/01 10:45:43;;;;;;;5.68;2.53;;;;;;;14.05;14.36;100972.34;4925371;29;20453;-67
2022/03/01 10:48:10;;;;;;;4.30;2.30;;;;;;;12.83;15.02;100963.88;4925150;29;20062;-67
2022/03/01 10:50:37;;;;;;;4.45;2.05;;;;;;;11.76;15.76;100965.63;4924977;29;20054;-65
2022/03/01 10:53:02;;;;;;;2.25;1.80;;;;;;;11.26;16.57;100970.09;4925174;29;20486;-67
2022/03/01 10:55:32;;;;;;;4.13;1.40;;;;;;;10.89;17.15;100970.28;4927560;28;20405;-67
2022/03/01 10:57:59;;;;;;;6.53;2.20;;;;;;;10.38;17.48;100972.00;4911781;29;20043;-68
2022/03/01 11:00:24;;;;;;;5.72;2.55;;;;;;;9.96;18.48;100966.91;4927767;29;20095;-67
2022/03/01 11:02:48;;;;;;;3.83;2.63;;;;;;;9.57;18.87;100967.00;4925662;29;20058;-67
2022/03/01 11:05:13;;;;;;;3.05;2.53;;;;;;;9.26;19.12;100958.66;4907553;29;20058;-72
2022/03/01 11:07:40;;;;;;;7.38;2.65;;;;;;;9.01;19.04;100964.22;4929472;29;20063;-77
2022/03/01 11:10:06;;;;;;;9.55;2.33;;;;;;;8.75;19.11;100973.31;4928370;29;20142;-68
2022/03/01 11:12:31;;;;;;;7.75;2.10;;;;;;;8.50;19.68;100954.03;4911496;29;20050;-70